Birch, Wisconsin
Current Conditions -  °F | °C
As of 9:35 PM on Friday 24 Oct 2014 (Local Time) from KTKV Reporting Station
Overcast Overcast  
Wind Chill: 54°   Ceiling: 900
Heat Index: 54°   Visibility: 10mi
Dew Point: 50°   Wind: 5mph
Humidity: 86%   Direction: 220°SW
Pressure: 29.84"   Gusts: NA
Location:  45.3496°N, 89.6689°W
Report Text: KTKV 250235Z AUTO 22004KT 10SM OVC009 12/10 A2984 RMK AO2 T01210099
Loading
Personal Weather Stations






























Interactive Weather Map
Tropical Storm Tracking
New forecast layout! Learn more

10-Day Weather Forecast

Advertisements
Track Severe Weather on mobile